Time,TemperatureF,DewpointF,PressureIn,WindDirection,WindDirectionDegrees,WindSpeedMPH,WindSpeedGustMPH,Humidity,HourlyPrecipIn,Conditions,Clouds,dailyrainin,SoftwareType,DateUTC
2013-01-04 00:10:00,26.4,23.0,30.49,NW,325,0.0,0.0,87,0.00,,,0.00,weatherlink.com 1.10,2013-01-04 06:10:00,
2013-01-04 00:25:00,26.3,23.0,30.49,NW,325,0.0,0.0,87,0.00,,,0.00,weatherlink.com 1.10,2013-01-04 06:25:00,
2013-01-04 00:40:00,24.4,21.0,30.49,NW,325,0.0,0.0,88,0.00,,,0.00,weatherlink.com 1.10,2013-01-04 06:40:00,
2013-01-04 00:55:00,24.9,22.0,30.49,NW,325,0.0,0.0,89,0.00,,,0.00,weatherlink.com 1.10,2013-01-04 06:55:00,
2013-01-04 01:10:00,26.6,24.0,30.48,NW,325,0.0,0.0,88,0.00,,,0.00,weatherlink.com 1.10,2013-01-04 07:10:00,
2013-01-04 01:25:00,25.7,22.0,30.48,NW,325,0.0,0.0,87,0.00,,,0.00,weatherlink.com 1.10,2013-01-04 07:25:00,
2013-01-04 01:40:00,24.9,22.0,30.48,NW,325,0.0,0.0,87,0.00,,,0.00,weatherlink.com 1.10,2013-01-04 07:40:00,
2013-01-04 01:55:00,24.2,21.0,30.48,NW,325,0.0,0.0,88,0.00,,,0.00,weatherlink.com 1.10,2013-01-04 07:55:00,
2013-01-04 02:10:00,22.7,20.0,30.48,NW,325,0.0,0.0,89,0.00,,,0.00,weatherlink.com 1.10,2013-01-04 08:10:00,
2013-01-04 02:25:00,22.0,20.0,30.48,NW,325,0.0,0.0,90,0.00,,,0.00,weatherlink.com 1.10,2013-01-04 08:25:00,
2013-01-04 02:40:00,22.4,20.0,30.48,NW,325,0.0,0.0,91,0.00,,,0.00,weatherlink.com 1.10,2013-01-04 08:40:00,
2013-01-04 02:55:00,22.6,20.0,30.48,NW,325,0.0,0.0,91,0.00,,,0.00,weatherlink.com 1.10,2013-01-04 08:55:00,
2013-01-04 03:10:00,22.0,20.0,30.48,NW,325,0.0,0.0,91,0.00,,,0.00,weatherlink.com 1.10,2013-01-04 09:10:00,
2013-01-04 03:25:00,22.0,20.0,30.48,NW,325,0.0,0.0,91,0.00,,,0.00,weatherlink.com 1.10,2013-01-04 09:25:00,
2013-01-04 03:40:00,22.6,21.0,30.47,NW,325,0.0,0.0,92,0.00,,,0.00,weatherlink.com 1.10,2013-01-04 09:40:00,
2013-01-04 03:55:00,22.7,21.0,30.48,NW,325,0.0,0.0,92,0.00,,,0.00,weatherlink.com 1.10,2013-01-04 09:55:00,
2013-01-04 04:10:00,21.1,19.0,30.48,WNW,287,0.0,0.0,91,0.00,,,0.00,weatherlink.com 1.10,2013-01-04 10:10:00,
2013-01-04 04:25:00,21.7,20.0,30.47,SSW,212,0.0,0.0,92,0.00,,,0.00,weatherlink.com 1.10,2013-01-04 10:25:00,
2013-01-04 04:40:00,22.5,21.0,30.47,SSW,212,0.0,0.0,93,0.00,,,0.00,weatherlink.com 1.10,2013-01-04 10:40:00,
2013-01-04 04:55:00,22.1,20.0,30.48,SSW,212,0.0,0.0,92,0.00,,,0.00,weatherlink.com 1.10,2013-01-04 10:55:00,
2013-01-04 05:10:00,21.3,19.0,30.48,SSW,212,0.0,0.0,92,0.00,,,0.00,weatherlink.com 1.10,2013-01-04 11:10:00,
2013-01-04 05:25:00,21.1,19.0,30.48,SSW,212,0.0,0.0,92,0.00,,,0.00,weatherlink.com 1.10,2013-01-04 11:25:00,
2013-01-04 05:40:00,21.1,19.0,30.49,SSW,212,0.0,0.0,92,0.00,,,0.00,weatherlink.com 1.10,2013-01-04 11:40:00,
2013-01-04 05:55:00,20.8,19.0,30.49,SSW,212,0.0,0.0,92,0.00,,,0.00,weatherlink.com 1.10,2013-01-04 11:55:00,
2013-01-04 06:10:00,20.7,19.0,30.49,SSW,212,0.0,0.0,92,0.00,,,0.00,weatherlink.com 1.10,2013-01-04 12:10:00,
2013-01-04 06:25:00,21.4,20.0,30.49,SSW,212,0.0,0.0,93,0.00,,,0.00,weatherlink.com 1.10,2013-01-04 12:25:00,
2013-01-04 06:40:00,20.6,19.0,30.50,SSW,212,0.0,0.0,92,0.00,,,0.00,weatherlink.com 1.10,2013-01-04 12:40:00,
2013-01-04 06:55:00,20.9,19.0,30.50,SSW,212,0.0,0.0,92,0.00,,,0.00,weatherlink.com 1.10,2013-01-04 12:55:00,
2013-01-04 07:10:00,21.2,19.0,30.49,SSW,212,0.0,0.0,92,0.00,,,0.00,weatherlink.com 1.10,2013-01-04 13:10:00,
2013-01-04 07:25:00,21.7,20.0,30.49,SSW,212,0.0,0.0,92,0.00,,,0.00,weatherlink.com 1.10,2013-01-04 13:25:00,
2013-01-04 07:40:00,21.7,20.0,30.49,SSW,212,0.0,0.0,92,0.00,,,0.00,weatherlink.com 1.10,2013-01-04 13:40:00,
2013-01-04 07:55:00,22.2,21.0,30.49,SSW,212,0.0,0.0,93,0.00,,,0.00,weatherlink.com 1.10,2013-01-04 13:55:00,
2013-01-04 08:10:00,23.3,21.0,30.49,SSW,212,0.0,0.0,92,0.00,,,0.00,weatherlink.com 1.10,2013-01-04 14:10:00,
2013-01-04 08:25:00,23.8,22.0,30.49,SSW,212,0.0,0.0,92,0.00,,,0.00,weatherlink.com 1.10,2013-01-04 14:25:00,
2013-01-04 08:40:00,25.6,24.0,30.49,SSW,212,0.0,0.0,92,0.00,,,0.00,weatherlink.com 1.10,2013-01-04 14:40:00,
2013-01-04 08:55:00,28.7,26.0,30.49,SSW,212,2.0,3.0,90,0.00,,,0.00,weatherlink.com 1.10,2013-01-04 14:55:00,
2013-01-04 09:10:00,30.0,26.0,30.50,SSE,161,3.0,7.0,86,0.00,,,0.00,weatherlink.com 1.10,2013-01-04 15:10:00,
2013-01-04 09:25:00,30.4,26.0,30.50,South,186,3.0,9.0,84,0.00,,,0.00,weatherlink.com 1.10,2013-01-04 15:25:00,
2013-01-04 09:41:00,31.6,27.0,30.50,South,185,3.0,7.0,83,0.00,,,0.00,weatherlink.com 1.10,2013-01-04 15:41:00,
2013-01-04 09:56:00,33.1,27.0,30.49,South,182,6.0,10.0,78,0.00,,,0.00,weatherlink.com 1.10,2013-01-04 15:56:00,
2013-01-04 10:11:00,34.4,27.0,30.49,SSE,149,5.0,8.0,75,0.00,,,0.00,weatherlink.com 1.10,2013-01-04 16:11:00,
2013-01-04 10:26:00,35.2,28.0,30.50,South,180,7.0,10.0,74,0.00,,,0.00,weatherlink.com 1.10,2013-01-04 16:26:00,
2013-01-04 10:41:00,36.3,28.0,30.49,South,169,4.0,9.0,72,0.00,,,0.00,weatherlink.com 1.10,2013-01-04 16:41:00,
2013-01-04 10:56:00,38.0,29.0,30.50,SSW,202,6.0,8.0,69,0.00,,,0.00,weatherlink.com 1.10,2013-01-04 16:56:00,
2013-01-04 11:11:00,38.5,28.0,30.49,SW,217,9.0,11.0,65,0.00,,,0.00,weatherlink.com 1.10,2013-01-04 17:11:00,
2013-01-04 11:26:00,38.9,28.0,30.48,SSW,205,6.0,10.0,64,0.00,,,0.00,weatherlink.com 1.10,2013-01-04 17:26:00,
2013-01-04 11:41:00,40.2,28.0,30.47,South,171,3.0,7.0,63,0.00,,,0.00,weatherlink.com 1.10,2013-01-04 17:41:00,
2013-01-04 11:56:00,41.5,28.0,30.46,SSW,207,5.0,9.0,60,0.00,,,0.00,weatherlink.com 1.10,2013-01-04 17:56:00,
2013-01-04 12:11:00,42.2,28.0,30.45,SSW,203,4.0,8.0,57,0.00,,,0.00,weatherlink.com 1.10,2013-01-04 18:11:00,
2013-01-04 12:26:00,43.5,27.0,30.44,SW,229,4.0,13.0,52,0.00,,,0.00,weatherlink.com 1.10,2013-01-04 18:26:00,
2013-01-04 12:41:00,44.6,27.0,30.43,SSW,209,4.0,12.0,50,0.00,,,0.00,weatherlink.com 1.10,2013-01-04 18:41:00,
2013-01-04 12:56:00,44.2,26.0,30.42,SSW,211,3.0,12.0,49,0.00,,,0.00,weatherlink.com 1.10,2013-01-04 18:56:00,
2013-01-04 13:11:00,45.0,27.0,30.41,SSW,204,8.0,11.0,49,0.00,,,0.00,weatherlink.com 1.10,2013-01-04 19:11:00,
2013-01-04 13:26:00,46.8,27.0,30.40,South,178,9.0,11.0,46,0.00,,,0.00,weatherlink.com 1.10,2013-01-04 19:26:00,
2013-01-04 13:41:00,47.2,27.0,30.40,WSW,237,2.0,16.0,45,0.00,,,0.00,weatherlink.com 1.10,2013-01-04 19:41:00,
2013-01-04 13:56:00,47.6,27.0,30.39,SW,229,9.0,13.0,45,0.00,,,0.00,weatherlink.com 1.10,2013-01-04 19:56:00,
2013-01-04 14:11:00,46.6,26.0,30.39,SW,236,8.0,15.0,45,0.00,,,0.00,weatherlink.com 1.10,2013-01-04 20:11:00,
2013-01-04 14:26:00,46.1,26.0,30.39,SSW,209,6.0,12.0,45,0.00,,,0.00,weatherlink.com 1.10,2013-01-04 20:26:00,
2013-01-04 14:56:00,46.4,26.0,30.38,WSW,244,3.0,11.0,46,0.00,,,0.00,weatherlink.com 1.10,2013-01-04 20:56:00,
2013-01-04 15:11:00,46.8,26.0,30.38,SW,214,8.0,12.0,45,0.00,,,0.00,weatherlink.com 1.10,2013-01-04 21:11:00,
2013-01-04 15:26:00,47.4,27.0,30.38,SW,223,6.0,11.0,45,0.00,,,0.00,weatherlink.com 1.10,2013-01-04 21:26:00,
2013-01-04 15:42:00,47.1,27.0,30.38,SSW,194,6.0,12.0,45,0.00,,,0.00,weatherlink.com 1.10,2013-01-04 21:42:00,
2013-01-04 15:57:00,47.2,27.0,30.37,SW,229,1.0,11.0,45,0.00,,,0.00,weatherlink.com 1.10,2013-01-04 21:57:00,
2013-01-04 16:12:00,46.6,26.0,30.37,SSW,205,3.0,11.0,44,0.00,,,0.00,weatherlink.com 1.10,2013-01-04 22:12:00,
2013-01-04 16:27:00,46.0,26.0,30.37,SSE,158,1.0,10.0,46,0.00,,,0.00,weatherlink.com 1.10,2013-01-04 22:27:00,
2013-01-04 16:42:00,45.4,26.0,30.37,SW,214,1.0,10.0,47,0.00,,,0.00,weatherlink.com 1.10,2013-01-04 22:42:00,
2013-01-04 16:57:00,44.7,25.0,30.37,SSW,213,2.0,10.0,46,0.00,,,0.00,weatherlink.com 1.10,2013-01-04 22:57:00,
2013-01-04 17:12:00,43.7,25.0,30.37,SSW,213,1.0,5.0,48,0.00,,,0.00,weatherlink.com 1.10,2013-01-04 23:12:00,
2013-01-04 17:27:00,42.5,25.0,30.37,SW,225,0.0,2.0,50,0.00,,,0.00,weatherlink.com 1.10,2013-01-04 23:27:00,
2013-01-04 17:42:00,41.3,24.0,30.37,SW,225,0.0,0.0,51,0.00,,,0.00,weatherlink.com 1.10,2013-01-04 23:42:00,
2013-01-04 17:57:00,38.9,24.0,30.37,SW,225,0.0,0.0,56,0.00,,,0.00,weatherlink.com 1.10,2013-01-04 23:57:00,
2013-01-04 18:12:00,38.3,24.0,30.37,SW,225,0.0,0.0,57,0.00,,,0.00,weatherlink.com 1.10,2013-01-05 00:12:00,
2013-01-04 18:27:00,38.0,25.0,30.37,SW,225,0.0,0.0,59,0.00,,,0.00,weatherlink.com 1.10,2013-01-05 00:27:00,
2013-01-04 18:42:00,38.0,24.0,30.37,SW,225,0.0,0.0,58,0.00,,,0.00,weatherlink.com 1.10,2013-01-05 00:42:00,
2013-01-04 18:57:00,38.1,24.0,30.37,SW,225,0.0,1.0,58,0.00,,,0.00,weatherlink.com 1.10,2013-01-05 00:57:00,
2013-01-04 19:27:00,37.4,24.0,30.37,South,182,0.0,3.0,59,0.00,,,0.00,weatherlink.com 1.10,2013-01-05 01:27:00,
2013-01-04 19:42:00,37.1,24.0,30.38,South,187,2.0,5.0,60,0.00,,,0.00,weatherlink.com 1.10,2013-01-05 01:42:00,
2013-01-04 19:57:00,36.1,24.0,30.38,South,187,1.0,3.0,61,0.00,,,0.00,weatherlink.com 1.10,2013-01-05 01:57:00,
2013-01-04 20:12:00,36.3,24.0,30.38,South,187,0.0,3.0,62,0.00,,,0.00,weatherlink.com 1.10,2013-01-05 02:12:00,
2013-01-04 20:27:00,35.8,25.0,30.37,South,187,0.0,3.0,64,0.00,,,0.00,weatherlink.com 1.10,2013-01-05 02:27:00,
2013-01-04 20:42:00,35.7,25.0,30.37,South,187,0.0,3.0,64,0.00,,,0.00,weatherlink.com 1.10,2013-01-05 02:42:00,
2013-01-04 20:57:00,35.7,25.0,30.37,South,187,1.0,3.0,65,0.00,,,0.00,weatherlink.com 1.10,2013-01-05 02:57:00,
2013-01-04 21:12:00,35.2,25.0,30.37,South,187,2.0,2.0,66,0.00,,,0.00,weatherlink.com 1.10,2013-01-05 03:12:00,
2013-01-04 21:27:00,35.5,25.0,30.37,South,187,0.0,5.0,66,0.00,,,0.00,weatherlink.com 1.10,2013-01-05 03:27:00,
2013-01-04 21:42:00,35.8,25.0,30.36,SSE,155,2.0,6.0,66,0.00,,,0.00,weatherlink.com 1.10,2013-01-05 03:42:00,
2013-01-04 21:57:00,35.6,25.0,30.36,South,186,0.0,6.0,66,0.00,,,0.00,weatherlink.com 1.10,2013-01-05 03:57:00,
2013-01-04 22:12:00,35.3,25.0,30.36,South,184,2.0,4.0,66,0.00,,,0.00,weatherlink.com 1.10,2013-01-05 04:12:00,
2013-01-04 22:27:00,33.8,25.0,30.36,South,184,0.0,1.0,69,0.00,,,0.00,weatherlink.com 1.10,2013-01-05 04:27:00,
2013-01-04 22:42:00,33.7,25.0,30.35,South,184,0.0,4.0,69,0.00,,,0.00,weatherlink.com 1.10,2013-01-05 04:42:00,
2013-01-04 22:57:00,33.2,24.0,30.36,South,184,0.0,3.0,69,0.00,,,0.00,weatherlink.com 1.10,2013-01-05 04:57:00,
2013-01-04 23:12:00,33.0,24.0,30.35,South,184,0.0,5.0,70,0.00,,,0.00,weatherlink.com 1.10,2013-01-05 05:12:00,
2013-01-04 23:27:00,33.2,24.0,30.34,South,184,0.0,3.0,69,0.00,,,0.00,weatherlink.com 1.10,2013-01-05 05:27:00,
2013-01-04 23:42:00,33.2,24.0,30.34,South,184,2.0,3.0,69,0.00,,,0.00,weatherlink.com 1.10,2013-01-05 05:42:00,
2013-01-04 23:57:00,33.5,24.0,30.34,South,184,0.0,4.0,69,0.00,,,0.00,weatherlink.com 1.10,2013-01-05 05:57:00,